sensor_id;sensor_type;location;lat;lon;timestamp;P1;durP1;ratioP1;P2;durP2;ratioP2
20844;SDS011;10583;49.084;8.646;2024-03-02T00:00:50;11.23;;;11.23;;
20844;SDS011;10583;49.084;8.646;2024-03-02T00:03:17;11.40;;;11.40;;
20844;SDS011;10583;49.084;8.646;2024-03-02T00:05:43;9.47;;;9.47;;
20844;SDS011;10583;49.084;8.646;2024-03-02T00:08:14;12.13;;;12.03;;
20844;SDS011;10583;49.084;8.646;2024-03-02T00:10:49;12.60;;;12.50;;
20844;SDS011;10583;49.084;8.646;2024-03-02T00:13:15;10.93;;;10.87;;
20844;SDS011;10583;49.084;8.646;2024-03-02T00:15:51;9.80;;;9.80;;
20844;SDS011;10583;49.084;8.646;2024-03-02T00:18:19;10.10;;;10.10;;
20844;SDS011;10583;49.084;8.646;2024-03-02T00:20:47;9.70;;;9.70;;
20844;SDS011;10583;49.084;8.646;2024-03-02T00:23:14;10.07;;;10.07;;
20844;SDS011;10583;49.084;8.646;2024-03-02T00:25:43;9.87;;;9.80;;
20844;SDS011;10583;49.084;8.646;2024-03-02T00:28:13;9.87;;;9.87;;
20844;SDS011;10583;49.084;8.646;2024-03-02T00:33:30;9.77;;;9.77;;
20844;SDS011;10583;49.084;8.646;2024-03-02T00:35:58;10.20;;;10.20;;
20844;SDS011;10583;49.084;8.646;2024-03-02T00:38:25;12.87;;;12.77;;
20844;SDS011;10583;49.084;8.646;2024-03-02T00:40:53;11.23;;;11.23;;
20844;SDS011;10583;49.084;8.646;2024-03-02T00:46:12;10.20;;;10.10;;
20844;SDS011;10583;49.084;8.646;2024-03-02T00:48:45;9.73;;;9.73;;
20844;SDS011;10583;49.084;8.646;2024-03-02T00:51:17;10.33;;;10.33;;
20844;SDS011;10583;49.084;8.646;2024-03-02T00:53:44;9.47;;;9.47;;
20844;SDS011;10583;49.084;8.646;2024-03-02T00:56:11;8.80;;;8.80;;
20844;SDS011;10583;49.084;8.646;2024-03-02T00:58:38;8.30;;;8.30;;
20844;SDS011;10583;49.084;8.646;2024-03-02T01:01:05;7.73;;;7.73;;
20844;SDS011;10583;49.084;8.646;2024-03-02T01:03:34;7.80;;;7.80;;
20844;SDS011;10583;49.084;8.646;2024-03-02T01:06:02;7.43;;;7.43;;
20844;SDS011;10583;49.084;8.646;2024-03-02T01:08:29;9.53;;;9.53;;
20844;SDS011;10583;49.084;8.646;2024-03-02T01:10:56;10.17;;;10.17;;
20844;SDS011;10583;49.084;8.646;2024-03-02T01:13:23;8.80;;;8.80;;
20844;SDS011;10583;49.084;8.646;2024-03-02T01:15:49;8.40;;;8.40;;
20844;SDS011;10583;49.084;8.646;2024-03-02T01:18:16;7.87;;;7.87;;
20844;SDS011;10583;49.084;8.646;2024-03-02T01:20:44;7.30;;;7.30;;
20844;SDS011;10583;49.084;8.646;2024-03-02T01:23:11;6.87;;;6.87;;
20844;SDS011;10583;49.084;8.646;2024-03-02T01:25:38;7.37;;;7.37;;
20844;SDS011;10583;49.084;8.646;2024-03-02T01:28:05;7.47;;;7.47;;
20844;SDS011;10583;49.084;8.646;2024-03-02T01:30:32;7.40;;;7.40;;
20844;SDS011;10583;49.084;8.646;2024-03-02T01:32:58;7.40;;;7.40;;
20844;SDS011;10583;49.084;8.646;2024-03-02T01:35:25;7.13;;;7.13;;
20844;SDS011;10583;49.084;8.646;2024-03-02T01:37:53;6.67;;;6.67;;
20844;SDS011;10583;49.084;8.646;2024-03-02T01:40:20;7.50;;;7.50;;
20844;SDS011;10583;49.084;8.646;2024-03-02T01:42:51;7.83;;;7.83;;
20844;SDS011;10583;49.084;8.646;2024-03-02T01:45:18;7.77;;;7.77;;
20844;SDS011;10583;49.084;8.646;2024-03-02T01:47:45;8.77;;;8.77;;
20844;SDS011;10583;49.084;8.646;2024-03-02T01:50:11;7.73;;;7.73;;
20844;SDS011;10583;49.084;8.646;2024-03-02T01:52:38;9.27;;;9.27;;
20844;SDS011;10583;49.084;8.646;2024-03-02T01:55:06;8.47;;;8.47;;
20844;SDS011;10583;49.084;8.646;2024-03-02T01:57:34;8.63;;;8.63;;
20844;SDS011;10583;49.084;8.646;2024-03-02T02:00:01;9.53;;;9.53;;
20844;SDS011;10583;49.084;8.646;2024-03-02T02:02:28;8.63;;;8.63;;
20844;SDS011;10583;49.084;8.646;2024-03-02T02:04:55;8.40;;;8.40;;
20844;SDS011;10583;49.084;8.646;2024-03-02T02:07:21;7.87;;;7.87;;
20844;SDS011;10583;49.084;8.646;2024-03-02T02:09:48;6.60;;;6.60;;
20844;SDS011;10583;49.084;8.646;2024-03-02T02:12:16;6.30;;;6.30;;
20844;SDS011;10583;49.084;8.646;2024-03-02T02:14:46;6.87;;;6.87;;
20844;SDS011;10583;49.084;8.646;2024-03-02T02:17:14;6.63;;;6.63;;
20844;SDS011;10583;49.084;8.646;2024-03-02T02:19:41;6.53;;;6.53;;
20844;SDS011;10583;49.084;8.646;2024-03-02T02:22:09;5.90;;;5.90;;
20844;SDS011;10583;49.084;8.646;2024-03-02T02:24:39;8.67;;;8.67;;
20844;SDS011;10583;49.084;8.646;2024-03-02T02:27:06;5.60;;;5.60;;
20844;SDS011;10583;49.084;8.646;2024-03-02T02:29:33;5.80;;;5.80;;
20844;SDS011;10583;49.084;8.646;2024-03-02T02:31:59;6.53;;;6.53;;
20844;SDS011;10583;49.084;8.646;2024-03-02T02:34:26;6.33;;;6.33;;
20844;SDS011;10583;49.084;8.646;2024-03-02T02:36:53;6.20;;;6.20;;
20844;SDS011;10583;49.084;8.646;2024-03-02T02:39:22;6.00;;;6.00;;
20844;SDS011;10583;49.084;8.646;2024-03-02T02:41:49;5.37;;;5.37;;
20844;SDS011;10583;49.084;8.646;2024-03-02T02:44:15;5.70;;;5.70;;
20844;SDS011;10583;49.084;8.646;2024-03-02T02:46:42;5.50;;;5.50;;
20844;SDS011;10583;49.084;8.646;2024-03-02T02:49:09;5.70;;;5.70;;
20844;SDS011;10583;49.084;8.646;2024-03-02T02:51:35;5.57;;;5.57;;
20844;SDS011;10583;49.084;8.646;2024-03-02T02:54:02;5.23;;;5.23;;
20844;SDS011;10583;49.084;8.646;2024-03-02T02:56:30;5.10;;;5.10;;
20844;SDS011;10583;49.084;8.646;2024-03-02T02:58:57;4.63;;;4.63;;
20844;SDS011;10583;49.084;8.646;2024-03-02T03:01:24;4.63;;;4.63;;
20844;SDS011;10583;49.084;8.646;2024-03-02T03:03:50;5.13;;;5.13;;
20844;SDS011;10583;49.084;8.646;2024-03-02T03:06:17;5.07;;;5.07;;
20844;SDS011;10583;49.084;8.646;2024-03-02T03:08:44;4.90;;;4.90;;
20844;SDS011;10583;49.084;8.646;2024-03-02T03:11:10;4.90;;;4.90;;
20844;SDS011;10583;49.084;8.646;2024-03-02T03:13:38;4.27;;;4.27;;
20844;SDS011;10583;49.084;8.646;2024-03-02T03:16:05;5.00;;;5.00;;
20844;SDS011;10583;49.084;8.646;2024-03-02T03:18:32;5.70;;;5.70;;
20844;SDS011;10583;49.084;8.646;2024-03-02T03:20:59;5.40;;;5.40;;
20844;SDS011;10583;49.084;8.646;2024-03-02T03:23:25;5.57;;;5.57;;
20844;SDS011;10583;49.084;8.646;2024-03-02T03:25:52;4.97;;;4.97;;
20844;SDS011;10583;49.084;8.646;2024-03-02T03:28:19;5.07;;;5.07;;
20844;SDS011;10583;49.084;8.646;2024-03-02T03:30:47;5.60;;;5.60;;
20844;SDS011;10583;49.084;8.646;2024-03-02T03:33:14;5.13;;;5.13;;
20844;SDS011;10583;49.084;8.646;2024-03-02T03:35:40;5.47;;;5.47;;
20844;SDS011;10583;49.084;8.646;2024-03-02T03:38:07;5.00;;;5.00;;
20844;SDS011;10583;49.084;8.646;2024-03-02T03:40:34;7.10;;;7.10;;
20844;SDS011;10583;49.084;8.646;2024-03-02T03:43:00;7.17;;;7.17;;
20844;SDS011;10583;49.084;8.646;2024-03-02T03:45:27;8.30;;;8.30;;
20844;SDS011;10583;49.084;8.646;2024-03-02T03:47:56;6.97;;;6.97;;
20844;SDS011;10583;49.084;8.646;2024-03-02T03:50:23;7.37;;;7.37;;
20844;SDS011;10583;49.084;8.646;2024-03-02T03:52:50;7.47;;;7.47;;
20844;SDS011;10583;49.084;8.646;2024-03-02T03:55:17;8.47;;;8.47;;
20844;SDS011;10583;49.084;8.646;2024-03-02T03:57:44;7.90;;;7.90;;
20844;SDS011;10583;49.084;8.646;2024-03-02T04:00:11;8.60;;;8.60;;
20844;SDS011;10583;49.084;8.646;2024-03-02T04:02:38;7.23;;;7.23;;
20844;SDS011;10583;49.084;8.646;2024-03-02T04:05:06;9.07;;;9.07;;
20844;SDS011;10583;49.084;8.646;2024-03-02T04:07:35;9.03;;;9.03;;
20844;SDS011;10583;49.084;8.646;2024-03-02T04:10:06;6.70;;;6.70;;
20844;SDS011;10583;49.084;8.646;2024-03-02T04:12:34;7.17;;;7.17;;
20844;SDS011;10583;49.084;8.646;2024-03-02T04:15:01;6.30;;;6.30;;
20844;SDS011;10583;49.084;8.646;2024-03-02T04:17:29;6.67;;;6.67;;
20844;SDS011;10583;49.084;8.646;2024-03-02T04:19:58;5.60;;;5.60;;
20844;SDS011;10583;49.084;8.646;2024-03-02T04:24:53;5.83;;;5.83;;
20844;SDS011;10583;49.084;8.646;2024-03-02T04:27:20;5.50;;;5.50;;
20844;SDS011;10583;49.084;8.646;2024-03-02T04:29:47;5.70;;;5.70;;
20844;SDS011;10583;49.084;8.646;2024-03-02T04:32:14;7.13;;;7.13;;
20844;SDS011;10583;49.084;8.646;2024-03-02T04:34:41;6.40;;;6.40;;
20844;SDS011;10583;49.084;8.646;2024-03-02T04:37:08;6.23;;;6.23;;
20844;SDS011;10583;49.084;8.646;2024-03-02T04:39:36;6.33;;;6.33;;
20844;SDS011;10583;49.084;8.646;2024-03-02T04:42:03;6.13;;;6.13;;
20844;SDS011;10583;49.084;8.646;2024-03-02T04:44:30;6.87;;;6.87;;
20844;SDS011;10583;49.084;8.646;2024-03-02T04:46:56;5.87;;;5.87;;
20844;SDS011;10583;49.084;8.646;2024-03-02T04:49:23;6.37;;;6.37;;
20844;SDS011;10583;49.084;8.646;2024-03-02T04:51:50;6.27;;;6.27;;
20844;SDS011;10583;49.084;8.646;2024-03-02T04:54:17;6.73;;;6.73;;
20844;SDS011;10583;49.084;8.646;2024-03-02T04:56:45;8.27;;;8.27;;
20844;SDS011;10583;49.084;8.646;2024-03-02T04:59:14;11.23;;;11.13;;
20844;SDS011;10583;49.084;8.646;2024-03-02T05:01:42;13.43;;;13.33;;
20844;SDS011;10583;49.084;8.646;2024-03-02T05:04:08;15.00;;;14.90;;
20844;SDS011;10583;49.084;8.646;2024-03-02T05:06:36;16.30;;;16.20;;
20844;SDS011;10583;49.084;8.646;2024-03-02T05:09:04;17.03;;;16.93;;
20844;SDS011;10583;49.084;8.646;2024-03-02T05:11:31;16.70;;;16.60;;
20844;SDS011;10583;49.084;8.646;2024-03-02T05:14:15;16.77;;;16.67;;
20844;SDS011;10583;49.084;8.646;2024-03-02T05:16:42;16.50;;;16.40;;
20844;SDS011;10583;49.084;8.646;2024-03-02T05:19:09;13.83;;;13.73;;
20844;SDS011;10583;49.084;8.646;2024-03-02T05:21:35;14.37;;;14.27;;
20844;SDS011;10583;49.084;8.646;2024-03-02T05:24:02;13.30;;;13.20;;
20844;SDS011;10583;49.084;8.646;2024-03-02T05:26:29;13.50;;;13.40;;
20844;SDS011;10583;49.084;8.646;2024-03-02T05:28:56;11.93;;;11.83;;
20844;SDS011;10583;49.084;8.646;2024-03-02T05:31:24;12.23;;;12.13;;
20844;SDS011;10583;49.084;8.646;2024-03-02T05:33:51;11.53;;;11.43;;
20844;SDS011;10583;49.084;8.646;2024-03-02T05:36:18;11.00;;;11.00;;
20844;SDS011;10583;49.084;8.646;2024-03-02T05:38:45;10.13;;;10.13;;
20844;SDS011;10583;49.084;8.646;2024-03-02T05:41:12;10.10;;;10.10;;
20844;SDS011;10583;49.084;8.646;2024-03-02T05:43:39;11.83;;;11.73;;
20844;SDS011;10583;49.084;8.646;2024-03-02T05:46:05;10.10;;;10.10;;
20844;SDS011;10583;49.084;8.646;2024-03-02T05:48:33;12.37;;;12.27;;
20844;SDS011;10583;49.084;8.646;2024-03-02T05:51:00;12.93;;;12.83;;
20844;SDS011;10583;49.084;8.646;2024-03-02T05:53:27;13.47;;;13.37;;
20844;SDS011;10583;49.084;8.646;2024-03-02T05:55:54;12.63;;;12.53;;
20844;SDS011;10583;49.084;8.646;2024-03-02T05:58:21;13.17;;;13.07;;
20844;SDS011;10583;49.084;8.646;2024-03-02T06:00:58;13.97;;;13.87;;
20844;SDS011;10583;49.084;8.646;2024-03-02T06:03:25;14.87;;;14.77;;
20844;SDS011;10583;49.084;8.646;2024-03-02T06:05:54;15.10;;;15.00;;
20844;SDS011;10583;49.084;8.646;2024-03-02T06:08:21;13.60;;;13.50;;
20844;SDS011;10583;49.084;8.646;2024-03-02T06:10:48;13.07;;;12.97;;
20844;SDS011;10583;49.084;8.646;2024-03-02T06:13:14;13.20;;;13.10;;
20844;SDS011;10583;49.084;8.646;2024-03-02T06:15:41;12.10;;;12.00;;
20844;SDS011;10583;49.084;8.646;2024-03-02T06:18:08;12.10;;;12.07;;
20844;SDS011;10583;49.084;8.646;2024-03-02T06:20:35;13.57;;;13.47;;
20844;SDS011;10583;49.084;8.646;2024-03-02T06:23:03;12.13;;;12.03;;
20844;SDS011;10583;49.084;8.646;2024-03-02T06:25:30;14.00;;;13.90;;
20844;SDS011;10583;49.084;8.646;2024-03-02T06:27:57;14.07;;;13.97;;
20844;SDS011;10583;49.084;8.646;2024-03-02T06:30:24;13.70;;;13.60;;
20844;SDS011;10583;49.084;8.646;2024-03-02T06:32:50;11.73;;;11.63;;
20844;SDS011;10583;49.084;8.646;2024-03-02T06:35:17;12.17;;;12.07;;
20844;SDS011;10583;49.084;8.646;2024-03-02T06:37:44;11.83;;;11.73;;
20844;SDS011;10583;49.084;8.646;2024-03-02T06:40:12;11.53;;;11.50;;
20844;SDS011;10583;49.084;8.646;2024-03-02T06:42:39;10.17;;;10.17;;
20844;SDS011;10583;49.084;8.646;2024-03-02T06:45:06;12.23;;;12.13;;
20844;SDS011;10583;49.084;8.646;2024-03-02T06:47:33;10.20;;;10.20;;
20844;SDS011;10583;49.084;8.646;2024-03-02T06:49:59;10.20;;;10.20;;
20844;SDS011;10583;49.084;8.646;2024-03-02T06:52:26;10.53;;;10.53;;
20844;SDS011;10583;49.084;8.646;2024-03-02T06:54:53;10.40;;;10.40;;
20844;SDS011;10583;49.084;8.646;2024-03-02T06:57:21;9.97;;;9.97;;
20844;SDS011;10583;49.084;8.646;2024-03-02T06:59:49;9.27;;;9.27;;
20844;SDS011;10583;49.084;8.646;2024-03-02T07:02:19;10.33;;;10.33;;
20844;SDS011;10583;49.084;8.646;2024-03-02T07:04:46;13.50;;;13.40;;
20844;SDS011;10583;49.084;8.646;2024-03-02T07:07:12;12.97;;;12.87;;
20844;SDS011;10583;49.084;8.646;2024-03-02T07:09:39;12.20;;;12.10;;
20844;SDS011;10583;49.084;8.646;2024-03-02T07:12:06;12.73;;;12.63;;
20844;SDS011;10583;49.084;8.646;2024-03-02T07:14:34;12.67;;;12.57;;
20844;SDS011;10583;49.084;8.646;2024-03-02T07:17:36;12.73;;;12.63;;
20844;SDS011;10583;49.084;8.646;2024-03-02T07:20:03;13.90;;;13.80;;
20844;SDS011;10583;49.084;8.646;2024-03-02T07:22:31;14.83;;;14.73;;
20844;SDS011;10583;49.084;8.646;2024-03-02T07:24:58;15.30;;;15.20;;
20844;SDS011;10583;49.084;8.646;2024-03-02T07:27:25;15.17;;;15.07;;
20844;SDS011;10583;49.084;8.646;2024-03-02T07:29:53;17.07;;;16.97;;
20844;SDS011;10583;49.084;8.646;2024-03-02T07:32:20;14.17;;;14.07;;
20844;SDS011;10583;49.084;8.646;2024-03-02T07:34:47;14.63;;;14.53;;
20844;SDS011;10583;49.084;8.646;2024-03-02T07:37:15;16.80;;;16.70;;
20844;SDS011;10583;49.084;8.646;2024-03-02T07:39:43;15.50;;;15.40;;
20844;SDS011;10583;49.084;8.646;2024-03-02T07:42:10;15.30;;;15.20;;
20844;SDS011;10583;49.084;8.646;2024-03-02T07:44:37;13.70;;;13.60;;
20844;SDS011;10583;49.084;8.646;2024-03-02T07:47:05;13.57;;;13.47;;
20844;SDS011;10583;49.084;8.646;2024-03-02T07:49:33;13.80;;;13.70;;
20844;SDS011;10583;49.084;8.646;2024-03-02T07:52:00;14.13;;;14.03;;
20844;SDS011;10583;49.084;8.646;2024-03-02T07:54:26;13.10;;;13.00;;
20844;SDS011;10583;49.084;8.646;2024-03-02T07:56:53;13.13;;;13.03;;
20844;SDS011;10583;49.084;8.646;2024-03-02T07:59:20;13.80;;;13.70;;
20844;SDS011;10583;49.084;8.646;2024-03-02T08:01:47;13.03;;;13.03;;
20844;SDS011;10583;49.084;8.646;2024-03-02T08:04:16;12.93;;;12.93;;
20844;SDS011;10583;49.084;8.646;2024-03-02T08:06:43;12.17;;;12.17;;
20844;SDS011;10583;49.084;8.646;2024-03-02T08:09:12;12.93;;;12.87;;
20844;SDS011;10583;49.084;8.646;2024-03-02T08:11:39;14.00;;;13.90;;
20844;SDS011;10583;49.084;8.646;2024-03-02T08:14:06;12.00;;;12.00;;
20844;SDS011;10583;49.084;8.646;2024-03-02T08:16:32;12.63;;;12.63;;
20844;SDS011;10583;49.084;8.646;2024-03-02T08:18:59;11.20;;;11.20;;
20844;SDS011;10583;49.084;8.646;2024-03-02T08:21:27;11.50;;;11.50;;
20844;SDS011;10583;49.084;8.646;2024-03-02T08:23:55;11.23;;;11.23;;
20844;SDS011;10583;49.084;8.646;2024-03-02T08:26:23;10.33;;;10.33;;
20844;SDS011;10583;49.084;8.646;2024-03-02T08:28:50;9.77;;;9.77;;
20844;SDS011;10583;49.084;8.646;2024-03-02T08:31:16;9.33;;;9.33;;
20844;SDS011;10583;49.084;8.646;2024-03-02T08:33:43;7.53;;;7.53;;
20844;SDS011;10583;49.084;8.646;2024-03-02T08:36:10;7.13;;;7.13;;
20844;SDS011;10583;49.084;8.646;2024-03-02T08:38:38;7.10;;;7.10;;
20844;SDS011;10583;49.084;8.646;2024-03-02T08:41:05;6.77;;;6.77;;
20844;SDS011;10583;49.084;8.646;2024-03-02T08:43:32;6.70;;;6.70;;
20844;SDS011;10583;49.084;8.646;2024-03-02T08:45:59;7.03;;;7.03;;
20844;SDS011;10583;49.084;8.646;2024-03-02T08:48:26;6.27;;;6.27;;
20844;SDS011;10583;49.084;8.646;2024-03-02T08:50:53;6.07;;;6.07;;
20844;SDS011;10583;49.084;8.646;2024-03-02T08:53:20;6.90;;;6.90;;
20844;SDS011;10583;49.084;8.646;2024-03-02T08:55:48;6.43;;;6.43;;
20844;SDS011;10583;49.084;8.646;2024-03-02T08:58:15;6.00;;;6.00;;
20844;SDS011;10583;49.084;8.646;2024-03-02T09:00:42;5.60;;;5.60;;
20844;SDS011;10583;49.084;8.646;2024-03-02T09:03:08;6.60;;;6.60;;
20844;SDS011;10583;49.084;8.646;2024-03-02T09:05:35;5.63;;;5.63;;
20844;SDS011;10583;49.084;8.646;2024-03-02T09:08:02;5.30;;;5.30;;
20844;SDS011;10583;49.084;8.646;2024-03-02T09:10:29;5.73;;;5.73;;
20844;SDS011;10583;49.084;8.646;2024-03-02T09:12:57;5.40;;;5.40;;
20844;SDS011;10583;49.084;8.646;2024-03-02T09:15:24;5.00;;;5.00;;
20844;SDS011;10583;49.084;8.646;2024-03-02T09:17:51;5.30;;;5.30;;
20844;SDS011;10583;49.084;8.646;2024-03-02T09:20:18;4.67;;;4.67;;
20844;SDS011;10583;49.084;8.646;2024-03-02T09:22:44;4.70;;;4.70;;
20844;SDS011;10583;49.084;8.646;2024-03-02T09:25:13;5.10;;;5.10;;
20844;SDS011;10583;49.084;8.646;2024-03-02T09:27:41;4.83;;;4.83;;
20844;SDS011;10583;49.084;8.646;2024-03-02T09:30:10;4.50;;;4.50;;
20844;SDS011;10583;49.084;8.646;2024-03-02T09:32:38;4.77;;;4.77;;
20844;SDS011;10583;49.084;8.646;2024-03-02T09:35:06;4.30;;;4.30;;
20844;SDS011;10583;49.084;8.646;2024-03-02T09:37:34;4.57;;;4.57;;
20844;SDS011;10583;49.084;8.646;2024-03-02T09:40:00;4.40;;;4.40;;
20844;SDS011;10583;49.084;8.646;2024-03-02T09:42:27;4.43;;;4.43;;
20844;SDS011;10583;49.084;8.646;2024-03-02T09:44:55;4.47;;;4.47;;
20844;SDS011;10583;49.084;8.646;2024-03-02T09:47:24;4.03;;;4.03;;
20844;SDS011;10583;49.084;8.646;2024-03-02T09:49:51;3.80;;;3.80;;
20844;SDS011;10583;49.084;8.646;2024-03-02T09:52:17;4.53;;;4.53;;
20844;SDS011;10583;49.084;8.646;2024-03-02T09:54:44;4.43;;;4.43;;
20844;SDS011;10583;49.084;8.646;2024-03-02T09:57:14;3.57;;;3.57;;
20844;SDS011;10583;49.084;8.646;2024-03-02T09:59:41;3.43;;;3.43;;
20844;SDS011;10583;49.084;8.646;2024-03-02T10:02:08;3.60;;;3.60;;
20844;SDS011;10583;49.084;8.646;2024-03-02T10:04:36;3.70;;;3.70;;
20844;SDS011;10583;49.084;8.646;2024-03-02T10:07:09;3.50;;;3.50;;
20844;SDS011;10583;49.084;8.646;2024-03-02T10:09:37;3.47;;;3.47;;
20844;SDS011;10583;49.084;8.646;2024-03-02T10:12:05;3.13;;;3.13;;
20844;SDS011;10583;49.084;8.646;2024-03-02T10:14:34;3.30;;;3.30;;
20844;SDS011;10583;49.084;8.646;2024-03-02T10:17:04;3.30;;;3.30;;
20844;SDS011;10583;49.084;8.646;2024-03-02T10:19:32;3.43;;;3.43;;
20844;SDS011;10583;49.084;8.646;2024-03-02T10:22:01;3.20;;;3.20;;
20844;SDS011;10583;49.084;8.646;2024-03-02T10:24:34;3.40;;;3.40;;
20844;SDS011;10583;49.084;8.646;2024-03-02T10:27:06;3.43;;;3.43;;
20844;SDS011;10583;49.084;8.646;2024-03-02T10:29:36;2.87;;;2.87;;
20844;SDS011;10583;49.084;8.646;2024-03-02T10:32:03;3.50;;;3.50;;
20844;SDS011;10583;49.084;8.646;2024-03-02T10:34:31;3.33;;;3.33;;
20844;SDS011;10583;49.084;8.646;2024-03-02T10:36:58;3.10;;;3.10;;
20844;SDS011;10583;49.084;8.646;2024-03-02T10:39:26;3.57;;;3.57;;
20844;SDS011;10583;49.084;8.646;2024-03-02T10:41:54;3.20;;;3.20;;
20844;SDS011;10583;49.084;8.646;2024-03-02T10:44:22;2.90;;;2.90;;
20844;SDS011;10583;49.084;8.646;2024-03-02T10:46:49;3.20;;;3.20;;
20844;SDS011;10583;49.084;8.646;2024-03-02T10:49:18;2.87;;;2.87;;
20844;SDS011;10583;49.084;8.646;2024-03-02T10:51:47;3.00;;;3.00;;
20844;SDS011;10583;49.084;8.646;2024-03-02T10:54:14;2.93;;;2.93;;
20844;SDS011;10583;49.084;8.646;2024-03-02T10:56:43;2.87;;;2.87;;
20844;SDS011;10583;49.084;8.646;2024-03-02T10:59:13;2.53;;;2.53;;
20844;SDS011;10583;49.084;8.646;2024-03-02T11:01:46;2.43;;;2.43;;
20844;SDS011;10583;49.084;8.646;2024-03-02T11:04:15;2.80;;;2.80;;
20844;SDS011;10583;49.084;8.646;2024-03-02T11:06:43;2.87;;;2.87;;
20844;SDS011;10583;49.084;8.646;2024-03-02T11:09:15;2.60;;;2.60;;
20844;SDS011;10583;49.084;8.646;2024-03-02T11:11:47;3.00;;;3.00;;
20844;SDS011;10583;49.084;8.646;2024-03-02T11:14:21;3.07;;;3.07;;
20844;SDS011;10583;49.084;8.646;2024-03-02T11:16:50;3.10;;;3.10;;
20844;SDS011;10583;49.084;8.646;2024-03-02T11:19:19;3.30;;;3.30;;
20844;SDS011;10583;49.084;8.646;2024-03-02T11:21:46;2.97;;;2.97;;
20844;SDS011;10583;49.084;8.646;2024-03-02T11:24:28;3.10;;;3.10;;
20844;SDS011;10583;49.084;8.646;2024-03-02T11:26:59;2.60;;;2.60;;
20844;SDS011;10583;49.084;8.646;2024-03-02T11:29:43;2.40;;;2.40;;
20844;SDS011;10583;49.084;8.646;2024-03-02T11:32:14;1.90;;;1.90;;
20844;SDS011;10583;49.084;8.646;2024-03-02T11:34:42;1.80;;;1.80;;
20844;SDS011;10583;49.084;8.646;2024-03-02T11:37:12;1.20;;;1.20;;
20844;SDS011;10583;49.084;8.646;2024-03-02T11:39:40;1.27;;;1.27;;
20844;SDS011;10583;49.084;8.646;2024-03-02T11:42:08;1.60;;;1.60;;
20844;SDS011;10583;49.084;8.646;2024-03-02T11:44:36;1.20;;;1.20;;
20844;SDS011;10583;49.084;8.646;2024-03-02T11:47:06;0.93;;;0.93;;
20844;SDS011;10583;49.084;8.646;2024-03-02T11:49:36;1.30;;;1.30;;
20844;SDS011;10583;49.084;8.646;2024-03-02T11:52:04;1.80;;;1.80;;
20844;SDS011;10583;49.084;8.646;2024-03-02T11:54:32;1.42;;;1.42;;
20844;SDS011;10583;49.084;8.646;2024-03-02T11:57:01;1.20;;;1.20;;
20844;SDS011;10583;49.084;8.646;2024-03-02T11:59:29;1.38;;;1.38;;
20844;SDS011;10583;49.084;8.646;2024-03-02T12:01:56;1.20;;;1.20;;
20844;SDS011;10583;49.084;8.646;2024-03-02T12:04:24;1.27;;;1.27;;
20844;SDS011;10583;49.084;8.646;2024-03-02T12:06:54;1.30;;;1.30;;
20844;SDS011;10583;49.084;8.646;2024-03-02T12:09:21;1.53;;;1.53;;
20844;SDS011;10583;49.084;8.646;2024-03-02T12:11:49;1.50;;;1.50;;
20844;SDS011;10583;49.084;8.646;2024-03-02T12:14:29;1.30;;;1.30;;
20844;SDS011;10583;49.084;8.646;2024-03-02T12:16:56;1.70;;;1.70;;
20844;SDS011;10583;49.084;8.646;2024-03-02T12:19:25;1.80;;;1.80;;
20844;SDS011;10583;49.084;8.646;2024-03-02T12:21:52;1.40;;;1.40;;
20844;SDS011;10583;49.084;8.646;2024-03-02T12:24:19;1.30;;;1.30;;
20844;SDS011;10583;49.084;8.646;2024-03-02T12:26:47;1.40;;;1.40;;
20844;SDS011;10583;49.084;8.646;2024-03-02T12:29:14;1.25;;;1.25;;
20844;SDS011;10583;49.084;8.646;2024-03-02T12:31:43;1.37;;;1.37;;
20844;SDS011;10583;49.084;8.646;2024-03-02T12:34:11;1.37;;;1.37;;
20844;SDS011;10583;49.084;8.646;2024-03-02T12:36:39;1.40;;;1.40;;
20844;SDS011;10583;49.084;8.646;2024-03-02T12:39:07;1.30;;;1.30;;
20844;SDS011;10583;49.084;8.646;2024-03-02T12:41:35;1.33;;;1.33;;
20844;SDS011;10583;49.084;8.646;2024-03-02T12:44:03;1.43;;;1.43;;
20844;SDS011;10583;49.084;8.646;2024-03-02T12:46:30;1.30;;;1.30;;
20844;SDS011;10583;49.084;8.646;2024-03-02T12:48:58;1.40;;;1.40;;
20844;SDS011;10583;49.084;8.646;2024-03-02T12:51:31;1.50;;;1.50;;
20844;SDS011;10583;49.084;8.646;2024-03-02T12:53:58;1.53;;;1.53;;
20844;SDS011;10583;49.084;8.646;2024-03-02T12:56:25;1.27;;;1.27;;
20844;SDS011;10583;49.084;8.646;2024-03-02T12:58:53;1.37;;;1.37;;
20844;SDS011;10583;49.084;8.646;2024-03-02T13:01:20;1.40;;;1.40;;
20844;SDS011;10583;49.084;8.646;2024-03-02T13:03:47;1.27;;;1.27;;
20844;SDS011;10583;49.084;8.646;2024-03-02T13:06:16;1.33;;;1.33;;
20844;SDS011;10583;49.084;8.646;2024-03-02T13:08:43;1.30;;;1.30;;
20844;SDS011;10583;49.084;8.646;2024-03-02T13:11:11;1.20;;;1.20;;
20844;SDS011;10583;49.084;8.646;2024-03-02T13:13:38;1.30;;;1.30;;
20844;SDS011;10583;49.084;8.646;2024-03-02T13:16:07;1.20;;;1.20;;
20844;SDS011;10583;49.084;8.646;2024-03-02T13:18:35;1.00;;;1.00;;
20844;SDS011;10583;49.084;8.646;2024-03-02T13:21:02;1.20;;;1.20;;
20844;SDS011;10583;49.084;8.646;2024-03-02T13:23:31;1.33;;;1.33;;
20844;SDS011;10583;49.084;8.646;2024-03-02T13:25:58;1.20;;;1.20;;
20844;SDS011;10583;49.084;8.646;2024-03-02T13:28:25;1.13;;;1.13;;
20844;SDS011;10583;49.084;8.646;2024-03-02T13:30:51;1.30;;;1.30;;
20844;SDS011;10583;49.084;8.646;2024-03-02T13:33:18;1.30;;;1.30;;
20844;SDS011;10583;49.084;8.646;2024-03-02T13:35:47;1.70;;;1.70;;
20844;SDS011;10583;49.084;8.646;2024-03-02T13:38:14;1.60;;;1.60;;
20844;SDS011;10583;49.084;8.646;2024-03-02T13:40:43;1.60;;;1.60;;
20844;SDS011;10583;49.084;8.646;2024-03-02T13:43:09;1.20;;;1.20;;
20844;SDS011;10583;49.084;8.646;2024-03-02T13:45:36;1.23;;;1.23;;
20844;SDS011;10583;49.084;8.646;2024-03-02T13:48:03;1.63;;;1.63;;
20844;SDS011;10583;49.084;8.646;2024-03-02T13:50:31;1.63;;;1.63;;
20844;SDS011;10583;49.084;8.646;2024-03-02T13:52:57;1.60;;;1.60;;
20844;SDS011;10583;49.084;8.646;2024-03-02T13:55:24;1.60;;;1.60;;
20844;SDS011;10583;49.084;8.646;2024-03-02T13:57:52;1.60;;;1.60;;
20844;SDS011;10583;49.084;8.646;2024-03-02T14:00:19;1.50;;;1.50;;
20844;SDS011;10583;49.084;8.646;2024-03-02T14:02:46;1.83;;;1.83;;
20844;SDS011;10583;49.084;8.646;2024-03-02T14:05:14;1.50;;;1.50;;
20844;SDS011;10583;49.084;8.646;2024-03-02T14:07:42;1.33;;;1.33;;
20844;SDS011;10583;49.084;8.646;2024-03-02T14:10:09;1.33;;;1.33;;
20844;SDS011;10583;49.084;8.646;2024-03-02T14:12:36;1.50;;;1.50;;
20844;SDS011;10583;49.084;8.646;2024-03-02T14:15:05;1.20;;;1.20;;
20844;SDS011;10583;49.084;8.646;2024-03-02T14:17:32;1.40;;;1.40;;
20844;SDS011;10583;49.084;8.646;2024-03-02T14:20:00;1.37;;;1.37;;
20844;SDS011;10583;49.084;8.646;2024-03-02T14:22:27;1.27;;;1.27;;
20844;SDS011;10583;49.084;8.646;2024-03-02T14:24:53;1.50;;;1.50;;
20844;SDS011;10583;49.084;8.646;2024-03-02T14:27:20;1.50;;;1.50;;
20844;SDS011;10583;49.084;8.646;2024-03-02T14:29:47;1.10;;;1.10;;
20844;SDS011;10583;49.084;8.646;2024-03-02T14:32:15;1.10;;;1.10;;
20844;SDS011;10583;49.084;8.646;2024-03-02T14:34:42;1.30;;;1.30;;
20844;SDS011;10583;49.084;8.646;2024-03-02T14:37:11;1.27;;;1.27;;
20844;SDS011;10583;49.084;8.646;2024-03-02T14:39:38;1.30;;;1.30;;
20844;SDS011;10583;49.084;8.646;2024-03-02T14:42:05;1.20;;;1.20;;
20844;SDS011;10583;49.084;8.646;2024-03-02T14:44:32;1.20;;;1.20;;
20844;SDS011;10583;49.084;8.646;2024-03-02T14:46:59;1.20;;;1.20;;
20844;SDS011;10583;49.084;8.646;2024-03-02T14:49:28;1.10;;;1.10;;
20844;SDS011;10583;49.084;8.646;2024-03-02T14:51:55;0.90;;;0.90;;